Time;durP1;ratioP1;P1;durP2;ratioP2;P2;SDS_P1;SDS_P2;PMS_P1;PMS_P2;Temp;Humidity;BMP_temperature;BMP_pressure;BME280_temperature;BME280_humidity;BME280_pressure;Samples;Min_cycle;Max_cycle;Signal;HPM_P1;HPM_P2
2021/11/02 00:00:23;;;;;;;;;;;24.90;45.20;;;;;;5078549;28;20305;-85
2021/11/02 00:02:51;;;;;;;;;;;24.90;45.20;;;;;;5095155;28;19909;-81
2021/11/02 00:05:19;;;;;;;;;;;24.90;45.20;;;;;;5077814;28;19947;-83
2021/11/02 00:07:48;;;;;;;;;;;24.90;45.30;;;;;;5077148;28;19909;-80
2021/11/02 00:10:13;;;;;;;;;;;24.80;45.20;;;;;;5077166;28;19908;-82
2021/11/02 00:12:39;;;;;;;;;;;24.90;45.30;;;;;;5077565;28;19908;-84
2021/11/02 00:15:07;;;;;;;;;;;24.90;45.30;;;;;;5094614;28;19995;-85
2021/11/02 00:17:35;;;;;;;;;;;24.90;45.30;;;;;;5077159;28;19913;-82
2021/11/02 00:20:03;;;;;;;;;;;24.90;45.40;;;;;;5077173;28;19909;-83
2021/11/02 00:22:34;;;;;;;;;;;24.90;45.40;;;;;;5094309;28;20337;-80
2021/11/02 00:25:06;;;;;;;;;;;24.90;45.40;;;;;;5076942;28;19920;-84
2021/11/02 00:27:37;;;;;;;;;;;24.90;46.00;;;;;;5076562;28;20348;-82
2021/11/02 00:30:05;;;;;;;;;;;24.90;45.40;;;;;;5076979;28;19974;-83
2021/11/02 00:32:31;;;;;;;;;;;24.90;45.40;;;;;;5078274;28;19908;-84
2021/11/02 00:34:57;;;;;;;;;;;24.90;45.50;;;;;;5094036;28;20333;-81
2021/11/02 00:37:23;;;;;;;;;;;24.90;45.50;;;;;;5077276;28;20344;-82
2021/11/02 00:39:48;;;;;;;;;;;24.80;45.50;;;;;;5093952;28;19920;-82
2021/11/02 00:42:14;;;;;;;;;;;24.80;45.50;;;;;;5076998;28;19912;-79
2021/11/02 00:44:43;;;;;;;;;;;24.80;45.50;;;;;;5076822;28;20222;-80
2021/11/02 00:47:13;;;;;;;;;;;24.80;45.50;;;;;;5076235;28;19908;-79
2021/11/02 00:49:39;;;;;;;;;;;24.80;45.50;;;;;;5092899;28;19916;-81
2021/11/02 00:52:07;;;;;;;;;;;24.80;45.50;;;;;;5076297;28;20322;-81
2021/11/02 00:54:34;;;;;;;;;;;24.80;45.60;;;;;;5076704;28;20330;-80
2021/11/02 00:57:00;;;;;;;;;;;24.80;45.50;;;;;;5076256;28;20341;-82
2021/11/02 00:59:25;;;;;;;;;;;24.80;45.50;;;;;;5076570;28;20003;-80
2021/11/02 01:01:51;;;;;;;;;;;24.80;45.60;;;;;;5093225;28;19916;-79
2021/11/02 01:04:17;;;;;;;;;;;24.80;45.60;;;;;;5076568;28;19975;-80
2021/11/02 01:06:42;;;;;;;;;;;24.90;45.60;;;;;;5076692;28;19908;-82
2021/11/02 01:09:08;;;;;;;;;;;24.80;45.60;;;;;;5076871;28;20003;-84
2021/11/02 01:11:34;;;;;;;;;;;24.80;45.60;;;;;;5093203;28;19909;-80
2021/11/02 01:14:04;;;;;;;;;;;24.80;45.60;;;;;;5076378;28;19909;-80
2021/11/02 01:16:31;;;;;;;;;;;24.80;45.60;;;;;;5076191;28;19958;-84
2021/11/02 01:18:57;;;;;;;;;;;24.80;45.60;;;;;;5093451;28;19908;-80
2021/11/02 01:21:25;;;;;;;;;;;24.80;45.60;;;;;;5092974;28;19908;-82
2021/11/02 01:23:53;;;;;;;;;;;24.80;45.70;;;;;;5093192;28;19908;-82
2021/11/02 01:26:18;;;;;;;;;;;24.80;45.60;;;;;;5075752;28;20341;-82
2021/11/02 01:28:46;;;;;;;;;;;24.80;45.60;;;;;;5076444;28;19908;-83
2021/11/02 01:31:14;;;;;;;;;;;24.80;45.60;;;;;;5092413;28;19913;-81
2021/11/02 01:33:42;;;;;;;;;;;24.80;45.60;;;;;;5092709;28;19909;-82
2021/11/02 01:36:08;;;;;;;;;;;24.80;45.70;;;;;;5092758;28;19913;-81
2021/11/02 01:38:34;;;;;;;;;;;24.80;45.70;;;;;;5092729;28;19920;-82
2021/11/02 01:41:03;;;;;;;;;;;24.80;45.70;;;;;;5075668;28;19927;-81
2021/11/02 01:43:28;;;;;;;;;;;24.80;45.70;;;;;;5075271;28;19912;-81
2021/11/02 01:45:56;;;;;;;;;;;24.80;45.70;;;;;;5075522;28;20004;-80
2021/11/02 01:48:26;;;;;;;;;;;24.70;45.70;;;;;;5075189;28;19908;-81
2021/11/02 01:50:54;;;;;;;;;;;24.80;45.70;;;;;;5075204;28;20202;-84
2021/11/02 01:53:25;;;;;;;;;;;24.70;45.70;;;;;;5075369;28;19909;-81
2021/11/02 01:55:55;;;;;;;;;;;24.80;45.80;;;;;;5092207;28;20019;-81
2021/11/02 01:58:21;;;;;;;;;;;24.80;45.80;;;;;;5092001;28;19908;-78
2021/11/02 02:00:49;;;;;;;;;;;24.80;45.80;;;;;;5075477;28;19920;-79
2021/11/02 02:03:19;;;;;;;;;;;24.80;45.70;;;;;;5091871;28;19909;-80
2021/11/02 02:05:55;;;;;;;;;;;24.80;45.70;;;;;;5076037;28;19975;-81
2021/11/02 02:08:39;;;;;;;;;;;24.80;45.80;;;;;;5092044;28;19944;-80
2021/11/02 02:11:26;;;;;;;;;;;24.70;45.80;;;;;;5075778;28;19909;-80
2021/11/02 02:13:53;;;;;;;;;;;24.70;45.80;;;;;;5091201;28;19913;-80
2021/11/02 02:16:31;;;;;;;;;;;24.70;45.80;;;;;;5083170;28;19923;-79
2021/11/02 02:19:25;;;;;;;;;;;24.70;45.90;;;;;;5061565;28;19951;-84
2021/11/02 02:22:04;;;;;;;;;;;24.70;45.80;;;;;;5092886;28;19994;-80
2021/11/02 02:24:39;;;;;;;;;;;24.70;45.80;;;;;;5095728;28;20246;-81
2021/11/02 02:27:23;;;;;;;;;;;24.70;45.80;;;;;;5095859;28;20029;-84
2021/11/02 02:29:51;;;;;;;;;;;24.70;45.90;;;;;;5095762;28;20061;-81
2021/11/02 02:32:23;;;;;;;;;;;24.70;45.90;;;;;;5095777;28;19908;-80
2021/11/02 02:34:49;;;;;;;;;;;24.70;45.90;;;;;;5078208;28;19938;-80
2021/11/02 02:37:16;;;;;;;;;;;24.70;45.90;;;;;;5061228;28;19938;-80
2021/11/02 02:39:41;;;;;;;;;;;24.70;45.90;;;;;;5060277;28;19931;-80
2021/11/02 02:42:07;;;;;;;;;;;24.70;45.90;;;;;;5060292;28;19908;-80
2021/11/02 02:44:35;;;;;;;;;;;24.70;45.80;;;;;;5060209;28;19919;-80
2021/11/02 02:47:00;;;;;;;;;;;24.70;45.80;;;;;;5077003;28;20396;-80
2021/11/02 02:49:31;;;;;;;;;;;24.70;45.90;;;;;;5060193;28;19951;-82
2021/11/02 02:51:56;;;;;;;;;;;24.70;45.80;;;;;;5060626;28;19908;-80
2021/11/02 02:54:22;;;;;;;;;;;24.70;45.80;;;;;;5060211;28;20228;-80
2021/11/02 02:56:53;;;;;;;;;;;24.70;45.80;;;;;;5076860;28;19920;-79
2021/11/02 02:59:21;;;;;;;;;;;24.70;45.90;;;;;;5060609;28;19908;-79
2021/11/02 03:01:50;;;;;;;;;;;24.70;45.90;;;;;;5076655;28;20000;-80
2021/11/02 03:04:22;;;;;;;;;;;24.70;45.90;;;;;;5060272;28;20320;-80
2021/11/02 03:06:53;;;;;;;;;;;24.70;45.90;;;;;;5077317;28;19908;-79
2021/11/02 03:09:21;;;;;;;;;;;24.70;45.80;;;;;;5076482;28;19912;-81
2021/11/02 03:11:46;;;;;;;;;;;24.70;45.90;;;;;;5076961;28;19939;-80
2021/11/02 03:14:13;;;;;;;;;;;24.70;45.90;;;;;;5059849;28;19958;-79
2021/11/02 03:19:40;;;;;;;;;;;24.70;45.90;;;;;;5076888;28;19938;-82
2021/11/02 03:44:39;;;;;;;;;;;24.60;46.10;;;;;;5080033;28;20073;-82
2021/11/02 03:55:23;;;;;;;;;;;24.60;46.00;;;;;;5079971;28;20007;-81
2021/11/02 03:58:01;;;;;;;;;;;24.50;46.00;;;;;;5060920;28;19918;-79
2021/11/02 04:23:32;;;;;;;;;;;24.50;46.00;;;;;;5079685;28;19918;-80
2021/11/02 05:49:23;;;;;;;;;;;24.40;46.00;;;;;;5080392;28;19919;-81
2021/11/02 05:59:42;;;;;;;;;;;24.40;45.90;;;;;;5079325;28;19912;-81
2021/11/02 06:05:04;;;;;;;;;;;24.40;41.10;;;;;;5078758;28;20393;-80
2021/11/02 06:09:59;;;;;;;;;;;20.00;46.50;;;;;;5095960;28;19909;-81
2021/11/02 06:28:50;;;;;;;;;;;20.00;44.50;;;;;;5080334;28;20390;-79
2021/11/02 06:31:20;;;;;;;;;;;20.10;44.70;;;;;;5060940;28;19916;-82
2021/11/02 06:33:53;;;;;;;;;;;19.50;45.10;;;;;;5078160;28;20253;-80
2021/11/02 06:39:33;;;;;;;;;;;19.80;45.20;;;;;;5079998;28;20015;-78
2021/11/02 06:42:24;;;;;;;;;;;19.80;45.00;;;;;;5081399;28;19955;-77
2021/11/02 07:10:56;;;;;;;;;;;23.00;45.20;;;;;;5094835;28;19919;-77
2021/11/02 07:19:41;;;;;;;;;;;23.40;44.10;;;;;;5080067;28;20269;-77
2021/11/02 07:22:20;;;;;;;;;;;23.50;44.90;;;;;;5060680;28;19938;-79
2021/11/02 08:45:32;;;;;;;;;;;24.30;50.50;;;;;;5098402;28;19951;-85
2021/11/02 08:48:02;;;;;;;;;;;24.30;50.40;;;;;;5066920;28;19915;-86
2021/11/02 08:50:34;;;;;;;;;;;24.30;50.30;;;;;;5080767;28;19908;-81
2021/11/02 08:53:01;;;;;;;;;;;24.30;50.20;;;;;;5064572;28;20267;-81
2021/11/02 08:55:26;;;;;;;;;;;24.30;50.00;;;;;;5080266;28;20251;-83
2021/11/02 08:57:56;;;;;;;;;;;24.40;50.00;;;;;;5080145;28;20007;-81
2021/11/02 09:00:22;;;;;;;;;;;24.40;49.90;;;;;;5080676;28;19999;-83
2021/11/02 09:02:49;;;;;;;;;;;24.30;49.80;;;;;;5080075;28;19974;-83
2021/11/02 09:05:18;;;;;;;;;;;24.40;49.70;;;;;;5063435;28;19915;-79
2021/11/02 09:07:44;;;;;;;;;;;24.40;49.60;;;;;;5063344;28;19912;-81
2021/11/02 09:10:16;;;;;;;;;;;24.40;49.40;;;;;;5098269;28;19919;-79
2021/11/02 09:12:42;;;;;;;;;;;24.40;49.40;;;;;;5098195;28;19908;-82
2021/11/02 09:15:08;;;;;;;;;;;24.40;49.20;;;;;;5063639;28;19908;-82
2021/11/02 09:17:33;;;;;;;;;;;24.50;49.20;;;;;;5080125;28;19922;-82
2021/11/02 09:19:59;;;;;;;;;;;24.50;49.10;;;;;;5098041;28;20252;-79
2021/11/02 09:22:25;;;;;;;;;;;24.50;48.90;;;;;;5079989;28;19908;-80
2021/11/02 09:24:51;;;;;;;;;;;24.60;48.80;;;;;;5079403;28;19908;-78
2021/11/02 09:27:16;;;;;;;;;;;24.60;48.80;;;;;;5063244;28;20006;-79
2021/11/02 09:29:44;;;;;;;;;;;24.60;48.70;;;;;;5079511;28;20312;-82
2021/11/02 09:32:10;;;;;;;;;;;24.60;48.60;;;;;;5079801;28;19939;-79
2021/11/02 09:34:36;;;;;;;;;;;24.60;48.80;;;;;;5079525;28;20390;-83
2021/11/02 09:37:03;;;;;;;;;;;24.60;48.60;;;;;;5079389;28;19926;-82
2021/11/02 09:39:38;;;;;;;;;;;24.50;48.60;;;;;;5096966;28;19995;-82
2021/11/02 09:42:10;;;;;;;;;;;24.50;48.50;;;;;;5080645;28;19908;-80
2021/11/02 09:44:46;;;;;;;;;;;24.50;48.60;;;;;;5096941;28;19908;-79
2021/11/02 09:47:22;;;;;;;;;;;24.50;48.60;;;;;;5097314;28;19912;-79
2021/11/02 09:50:02;;;;;;;;;;;24.50;48.50;;;;;;5079792;28;20003;-82
2021/11/02 09:52:47;;;;;;;;;;;24.50;48.50;;;;;;5062510;28;20000;-82
2021/11/02 09:55:19;;;;;;;;;;;24.50;48.50;;;;;;5097238;28;19912;-82
2021/11/02 09:57:52;;;;;;;;;;;24.50;48.50;;;;;;5096991;28;19916;-82
2021/11/02 10:00:28;;;;;;;;;;;24.50;48.50;;;;;;5079604;28;19951;-81
2021/11/02 10:03:01;;;;;;;;;;;24.50;48.50;;;;;;5097035;28;19908;-82
2021/11/02 10:05:33;;;;;;;;;;;24.50;48.60;;;;;;5079486;28;19940;-81
2021/11/02 10:08:04;;;;;;;;;;;24.50;49.50;;;;;;5074273;28;19964;-78
2021/11/02 10:10:49;;;;;;;;;;;24.50;50.40;;;;;;5116930;28;20409;-81
2021/11/02 10:13:19;;;;;;;;;;;24.50;51.20;;;;;;5116707;28;19951;-79
2021/11/02 10:15:47;;;;;;;;;;;24.50;51.20;;;;;;5116358;28;19908;-84
2021/11/02 10:18:19;;;;;;;;;;;24.60;51.20;;;;;;5098446;28;20237;-77
2021/11/02 10:21:00;;;;;;;;;;;24.60;51.30;;;;;;5099701;28;20353;-79
2021/11/02 10:23:37;;;;;;;;;;;24.70;51.30;;;;;;5116649;28;19911;-80
2021/11/02 10:26:12;;;;;;;;;;;24.70;51.30;;;;;;5099700;28;19907;-78
2021/11/02 10:28:43;;;;;;;;;;;24.70;51.10;;;;;;5116723;28;19950;-80
2021/11/02 10:31:26;;;;;;;;;;;24.70;51.20;;;;;;5117059;28;19976;-78
2021/11/02 10:34:14;;;;;;;;;;;24.80;51.00;;;;;;5099440;28;19931;-79
2021/11/02 10:36:55;;;;;;;;;;;24.80;50.90;;;;;;5117090;28;19912;-79
2021/11/02 10:39:26;;;;;;;;;;;24.80;50.70;;;;;;5066450;28;19920;-82
2021/11/02 10:41:57;;;;;;;;;;;24.90;50.70;;;;;;5077835;28;19908;-83
2021/11/02 10:44:43;;;;;;;;;;;24.90;50.40;;;;;;5061700;28;19923;-80
2021/11/02 10:47:11;;;;;;;;;;;24.90;50.40;;;;;;5095222;28;19916;-80
2021/11/02 10:49:46;;;;;;;;;;;25.00;50.30;;;;;;5061684;28;19916;-78
2021/11/02 10:52:15;;;;;;;;;;;25.00;50.30;;;;;;5077846;28;20214;-78
2021/11/02 10:55:04;;;;;;;;;;;25.00;50.00;;;;;;5078789;28;19930;-79
2021/11/02 10:57:48;;;;;;;;;;;25.00;50.00;;;;;;5078543;28;19934;-77
2021/11/02 11:00:14;;;;;;;;;;;25.10;49.80;;;;;;5077968;28;19908;-83
2021/11/02 11:02:42;;;;;;;;;;;25.10;49.80;;;;;;5061547;28;19908;-77
2021/11/02 11:05:10;;;;;;;;;;;25.10;49.60;;;;;;5078150;28;19912;-77
2021/11/02 11:07:42;;;;;;;;;;;25.20;49.50;;;;;;5061470;28;20380;-79
2021/11/02 11:10:08;;;;;;;;;;;25.20;49.40;;;;;;5075707;28;19909;-80
2021/11/02 11:12:38;;;;;;;;;;;25.20;49.20;;;;;;5095262;28;19908;-78
2021/11/02 11:15:05;;;;;;;;;;;25.30;49.20;;;;;;5095435;28;19908;-79
2021/11/02 11:17:33;;;;;;;;;;;25.30;49.30;;;;;;5060920;28;19912;-80
2021/11/02 11:19:59;;;;;;;;;;;25.30;49.20;;;;;;5078268;28;19908;-81
2021/11/02 11:22:30;;;;;;;;;;;25.30;49.20;;;;;;5095258;28;19923;-79
2021/11/02 11:24:56;;;;;;;;;;;25.30;49.10;;;;;;5079195;28;19908;-77
2021/11/02 11:27:22;;;;;;;;;;;25.30;49.10;;;;;;5060790;28;19908;-79
2021/11/02 11:29:48;;;;;;;;;;;25.30;49.00;;;;;;5077970;28;20340;-77
2021/11/02 11:32:17;;;;;;;;;;;25.40;49.00;;;;;;5061098;28;19908;-78
2021/11/02 11:34:46;;;;;;;;;;;25.30;48.90;;;;;;5095629;28;19913;-82
2021/11/02 11:37:12;;;;;;;;;;;25.40;48.90;;;;;;5077815;28;19923;-78
2021/11/02 11:39:41;;;;;;;;;;;25.40;48.90;;;;;;5090846;28;19920;-79
2021/11/02 11:42:07;;;;;;;;;;;25.40;48.80;;;;;;5094195;28;19919;-79
2021/11/02 11:44:36;;;;;;;;;;;25.40;48.70;;;;;;5077646;28;19908;-79
2021/11/02 11:47:08;;;;;;;;;;;25.40;48.60;;;;;;5095945;28;19939;-77
2021/11/02 11:49:33;;;;;;;;;;;25.50;48.60;;;;;;5097826;28;20296;-78
2021/11/02 11:51:59;;;;;;;;;;;25.50;48.60;;;;;;5081305;28;19984;-80
2021/11/02 11:54:33;;;;;;;;;;;25.50;48.60;;;;;;5099249;28;19908;-81
2021/11/02 11:57:01;;;;;;;;;;;25.50;48.70;;;;;;5099090;28;19912;-82
2021/11/02 11:59:27;;;;;;;;;;;25.60;48.70;;;;;;5081761;28;20218;-78
2021/11/02 12:02:01;;;;;;;;;;;25.60;48.80;;;;;;5098834;28;19920;-82
2021/11/02 12:04:40;;;;;;;;;;;25.50;48.70;;;;;;5098058;28;19908;-80
2021/11/02 12:07:10;;;;;;;;;;;25.60;48.70;;;;;;5097642;28;20328;-78
2021/11/02 12:09:42;;;;;;;;;;;25.50;48.60;;;;;;5081459;28;19923;-77
2021/11/02 12:12:08;;;;;;;;;;;25.60;48.60;;;;;;5099190;28;19908;-78
2021/11/02 12:14:36;;;;;;;;;;;25.50;48.60;;;;;;5099228;28;19968;-78
2021/11/02 12:17:02;;;;;;;;;;;25.60;48.60;;;;;;5081588;28;20325;-76
2021/11/02 12:19:35;;;;;;;;;;;25.60;48.50;;;;;;5098166;28;19918;-77
2021/11/02 12:22:05;;;;;;;;;;;25.60;48.40;;;;;;5099986;28;19908;-80
2021/11/02 12:24:35;;;;;;;;;;;25.60;48.30;;;;;;5097960;28;19909;-79
2021/11/02 12:27:13;;;;;;;;;;;25.60;48.30;;;;;;5097561;28;19921;-78
2021/11/02 12:29:41;;;;;;;;;;;25.60;48.30;;;;;;5098280;28;20386;-79
2021/11/02 12:32:11;;;;;;;;;;;25.60;48.20;;;;;;5080796;28;19919;-76
2021/11/02 12:34:55;;;;;;;;;;;25.60;48.20;;;;;;5095422;28;19908;-80
2021/11/02 12:37:23;;;;;;;;;;;25.60;48.20;;;;;;5063852;28;20283;-83
2021/11/02 12:39:49;;;;;;;;;;;25.60;48.10;;;;;;5080235;28;19981;-78
2021/11/02 12:42:20;;;;;;;;;;;25.60;48.20;;;;;;5063471;28;19912;-80
2021/11/02 12:44:49;;;;;;;;;;;25.70;48.20;;;;;;5080844;28;19908;-82
2021/11/02 12:47:17;;;;;;;;;;;25.70;48.20;;;;;;5063782;28;19909;-78
2021/11/02 12:49:48;;;;;;;;;;;25.70;48.10;;;;;;5063254;28;19971;-78
2021/11/02 12:52:14;;;;;;;;;;;25.60;48.00;;;;;;5097698;28;19969;-82
2021/11/02 12:54:40;;;;;;;;;;;25.60;47.90;;;;;;5079941;28;19908;-81
2021/11/02 12:57:08;;;;;;;;;;;25.70;47.80;;;;;;5062782;28;19923;-78
2021/11/02 12:59:36;;;;;;;;;;;24.40;42.60;;;;;;5097243;28;19919;-82
2021/11/02 13:02:21;;;;;;;;;;;22.10;41.90;;;;;;5079897;28;19908;-80
2021/11/02 13:04:56;;;;;;;;;;;22.50;43.70;;;;;;5097738;28;19962;-77
2021/11/02 13:07:22;;;;;;;;;;;23.20;45.30;;;;;;5079969;28;19987;-83
2021/11/02 13:09:51;;;;;;;;;;;23.70;45.10;;;;;;5079692;28;19970;-81
2021/11/02 13:12:23;;;;;;;;;;;24.10;44.80;;;;;;5063549;28;19939;-80
2021/11/02 13:14:49;;;;;;;;;;;24.40;44.50;;;;;;5079680;28;19999;-81
2021/11/02 13:17:23;;;;;;;;;;;24.60;44.50;;;;;;5097548;28;19912;-81
2021/11/02 13:19:49;;;;;;;;;;;24.90;44.50;;;;;;5097863;28;19919;-79
2021/11/02 13:22:16;;;;;;;;;;;25.00;44.50;;;;;;5079767;28;20318;-81
2021/11/02 13:25:26;;;;;;;;;;;25.10;44.40;;;;;;5097263;28;19919;-83
2021/11/02 13:27:52;;;;;;;;;;;25.20;44.40;;;;;;5018750;28;19963;-81
2021/11/02 13:30:36;;;;;;;;;;;25.20;44.50;;;;;;5018702;28;20071;-80
2021/11/02 13:33:03;;;;;;;;;;;25.30;44.70;;;;;;5018842;28;20302;-83
2021/11/02 13:35:40;;;;;;;;;;;25.30;44.70;;;;;;5002091;28;19916;-82
2021/11/02 13:38:23;;;;;;;;;;;25.40;44.70;;;;;;5022227;28;19967;-80
2021/11/02 13:40:52;;;;;;;;;;;25.40;44.70;;;;;;5055605;28;19909;-76
2021/11/02 13:43:43;;;;;;;;;;;25.40;44.80;;;;;;5038801;28;20345;-82
2021/11/02 13:46:09;;;;;;;;;;;25.40;44.80;;;;;;5053447;28;19908;-82
2021/11/02 13:48:35;;;;;;;;;;;25.50;44.90;;;;;;5055272;28;19996;-76
2021/11/02 13:51:02;;;;;;;;;;;25.50;44.90;;;;;;5022028;28;20401;-79
2021/11/02 13:53:32;;;;;;;;;;;25.50;45.00;;;;;;5021901;28;20349;-81
2021/11/02 13:55:58;;;;;;;;;;;25.50;45.00;;;;;;5054674;28;20281;-81
2021/11/02 13:58:23;;;;;;;;;;;25.50;45.00;;;;;;5082914;28;19908;-80
2021/11/02 14:00:49;;;;;;;;;;;25.60;45.10;;;;;;5116853;28;19908;-82
2021/11/02 14:03:20;;;;;;;;;;;25.60;45.10;;;;;;5116827;28;19908;-81
2021/11/02 14:05:46;;;;;;;;;;;25.60;45.10;;;;;;5098856;28;20018;-80
2021/11/02 14:08:11;;;;;;;;;;;25.60;45.10;;;;;;5082472;28;19908;-82
2021/11/02 14:10:39;;;;;;;;;;;25.60;45.10;;;;;;5116383;28;19907;-78
2021/11/02 14:13:10;;;;;;;;;;;25.60;45.10;;;;;;5099643;28;20336;-79
2021/11/02 14:15:36;;;;;;;;;;;25.60;45.10;;;;;;5099825;28;19912;-83
2021/11/02 14:18:08;;;;;;;;;;;25.60;45.10;;;;;;5081918;28;20371;-79
2021/11/02 14:20:38;;;;;;;;;;;25.60;45.20;;;;;;5099036;28;19985;-80
2021/11/02 14:23:06;;;;;;;;;;;25.60;45.30;;;;;;5098883;28;19977;-81
2021/11/02 14:25:33;;;;;;;;;;;25.70;45.30;;;;;;5081975;28;20269;-79
2021/11/02 14:28:02;;;;;;;;;;;25.70;45.30;;;;;;5081614;28;19943;-79
2021/11/02 14:30:27;;;;;;;;;;;25.70;45.30;;;;;;5099083;28;20506;-80
2021/11/02 14:32:53;;;;;;;;;;;25.70;45.30;;;;;;5116172;28;19908;-77
2021/11/02 14:35:34;;;;;;;;;;;25.70;45.30;;;;;;5115927;28;19908;-79
2021/11/02 14:38:02;;;;;;;;;;;25.70;45.30;;;;;;5115404;28;20336;-80
2021/11/02 14:40:31;;;;;;;;;;;25.80;45.30;;;;;;5116479;28;19961;-81
2021/11/02 14:42:57;;;;;;;;;;;25.70;45.20;;;;;;5081811;28;20422;-81
2021/11/02 14:45:38;;;;;;;;;;;25.80;45.30;;;;;;5098725;28;20312;-82
2021/11/02 14:48:25;;;;;;;;;;;25.80;45.40;;;;;;5098205;28;20332;-80
2021/11/02 14:51:17;;;;;;;;;;;25.80;45.40;;;;;;5097899;28;19918;-79
2021/11/02 14:53:43;;;;;;;;;;;25.80;46.00;;;;;;5094641;28;19999;-80
2021/11/02 14:56:14;;;;;;;;;;;25.80;45.30;;;;;;5080978;28;19912;-79
2021/11/02 14:58:43;;;;;;;;;;;25.80;45.30;;;;;;5099262;28;19908;-79
2021/11/02 15:01:10;;;;;;;;;;;25.80;45.30;;;;;;5098219;28;19907;-82
2021/11/02 15:03:36;;;;;;;;;;;25.80;45.30;;;;;;5081304;28;19912;-82
2021/11/02 15:06:12;;;;;;;;;;;25.90;45.30;;;;;;5097914;28;19908;-85
2021/11/02 15:08:39;;;;;;;;;;;25.90;45.30;;;;;;5081351;28;20031;-80
2021/11/02 15:11:12;;;;;;;;;;;25.90;45.20;;;;;;5097685;28;19908;-82
2021/11/02 15:13:49;;;;;;;;;;;25.90;45.20;;;;;;5080900;28;19907;-80
2021/11/02 15:16:15;;;;;;;;;;;25.90;45.30;;;;;;5097565;28;19912;-79
2021/11/02 15:19:00;;;;;;;;;;;25.80;45.30;;;;;;5097652;28;19914;-79
2021/11/02 15:21:42;;;;;;;;;;;25.90;45.30;;;;;;5080941;28;20249;-79
2021/11/02 15:24:24;;;;;;;;;;;25.90;45.30;;;;;;5115524;28;19961;-77
2021/11/02 15:26:50;;;;;;;;;;;25.90;45.30;;;;;;5081054;28;19918;-78
2021/11/02 15:29:16;;;;;;;;;;;25.90;45.30;;;;;;5097608;28;19908;-78
2021/11/02 15:31:44;;;;;;;;;;;25.90;45.30;;;;;;5097574;28;19908;-81
2021/11/02 15:34:15;;;;;;;;;;;25.90;45.20;;;;;;5081095;28;19927;-80
2021/11/02 15:36:42;;;;;;;;;;;25.90;45.30;;;;;;5116024;28;19912;-81
2021/11/02 15:39:07;;;;;;;;;;;26.00;45.30;;;;;;5068097;28;20341;-78
2021/11/02 15:41:33;;;;;;;;;;;26.00;45.30;;;;;;5095262;28;19912;-80
2021/11/02 15:44:03;;;;;;;;;;;26.00;45.30;;;;;;5076834;28;19954;-78
2021/11/02 15:46:41;;;;;;;;;;;26.00;45.30;;;;;;5074550;28;19908;-79
2021/11/02 15:49:14;;;;;;;;;;;26.00;45.20;;;;;;5090182;28;19918;-84
2021/11/02 15:51:40;;;;;;;;;;;26.00;45.10;;;;;;5073432;28;20217;-78
2021/11/02 15:54:12;;;;;;;;;;;26.00;45.10;;;;;;5090813;28;19909;-80
2021/11/02 15:56:41;;;;;;;;;;;26.00;45.10;;;;;;5074304;28;19988;-82
2021/11/02 15:59:07;;;;;;;;;;;26.10;45.10;;;;;;5074255;28;20383;-77
2021/11/02 16:01:37;;;;;;;;;;;26.10;45.10;;;;;;5074340;28;19939;-80
2021/11/02 16:04:15;;;;;;;;;;;26.10;45.00;;;;;;5090397;28;19913;-77
2021/11/02 16:06:57;;;;;;;;;;;26.10;45.00;;;;;;5074583;28;20333;-79
2021/11/02 16:09:24;;;;;;;;;;;26.10;45.00;;;;;;5090661;28;19912;-83
2021/11/02 16:11:49;;;;;;;;;;;26.10;44.90;;;;;;5074228;28;20214;-78
2021/11/02 16:14:20;;;;;;;;;;;26.10;44.90;;;;;;5075027;28;19975;-78
2021/11/02 16:16:49;;;;;;;;;;;26.10;44.90;;;;;;5090176;28;20267;-80
2021/11/02 16:19:15;;;;;;;;;;;26.10;45.00;;;;;;5090195;28;19916;-80
2021/11/02 16:21:42;;;;;;;;;;;26.10;45.00;;;;;;5073581;28;20198;-78
2021/11/02 16:24:09;;;;;;;;;;;26.10;44.90;;;;;;5073203;28;19909;-79
2021/11/02 16:26:37;;;;;;;;;;;26.10;44.80;;;;;;5056704;28;20329;-79
2021/11/02 16:29:09;;;;;;;;;;;26.10;44.70;;;;;;5090385;28;19923;-79
2021/11/02 16:31:35;;;;;;;;;;;26.10;45.10;;;;;;5073154;28;19908;-77
2021/11/02 16:34:13;;;;;;;;;;;26.10;44.50;;;;;;5075708;28;19909;-78
2021/11/02 16:36:38;;;;;;;;;;;26.10;44.40;;;;;;5093885;28;19991;-78
2021/11/02 16:39:16;;;;;;;;;;;26.00;44.30;;;;;;5089787;28;19954;-78
2021/11/02 16:41:45;;;;;;;;;;;26.00;44.30;;;;;;5098182;28;19908;-78
2021/11/02 16:44:16;;;;;;;;;;;26.00;44.30;;;;;;5080712;28;19918;-77
2021/11/02 16:46:43;;;;;;;;;;;26.00;44.20;;;;;;5080762;28;19912;-80
2021/11/02 16:49:10;;;;;;;;;;;26.00;44.20;;;;;;5098016;28;19915;-79
2021/11/02 16:51:43;;;;;;;;;;;26.00;44.20;;;;;;5063316;28;20013;-81
2021/11/02 16:54:09;;;;;;;;;;;26.00;44.20;;;;;;5079955;28;19927;-80
2021/11/02 16:56:37;;;;;;;;;;;26.00;44.20;;;;;;5063125;28;20336;-76
2021/11/02 16:59:05;;;;;;;;;;;25.90;44.10;;;;;;5080157;28;19923;-77
2021/11/02 17:01:31;;;;;;;;;;;25.90;44.10;;;;;;5063169;28;20381;-78
2021/11/02 17:04:09;;;;;;;;;;;25.90;44.10;;;;;;5079853;28;19908;-79
2021/11/02 17:06:37;;;;;;;;;;;25.90;44.10;;;;;;5097761;28;19908;-77
2021/11/02 17:09:06;;;;;;;;;;;25.90;44.10;;;;;;5079290;28;19913;-80
2021/11/02 17:11:32;;;;;;;;;;;25.90;44.10;;;;;;5096940;28;20338;-78
2021/11/02 17:14:00;;;;;;;;;;;25.90;44.10;;;;;;5079497;28;19919;-79
2021/11/02 17:16:27;;;;;;;;;;;25.90;44.10;;;;;;5079735;28;19912;-82
2021/11/02 17:19:06;;;;;;;;;;;25.90;44.10;;;;;;5097377;28;20115;-81
2021/11/02 17:21:40;;;;;;;;;;;25.90;44.30;;;;;;5097125;28;20383;-84
2021/11/02 17:24:06;;;;;;;;;;;25.90;44.40;;;;;;5079858;28;19966;-79
2021/11/02 17:26:33;;;;;;;;;;;25.90;44.50;;;;;;5097112;28;19916;-82
2021/11/02 17:28:58;;;;;;;;;;;25.90;44.60;;;;;;5062501;28;19908;-82
2021/11/02 17:31:25;;;;;;;;;;;26.00;44.60;;;;;;5079115;28;19909;-78
2021/11/02 17:33:50;;;;;;;;;;;26.00;44.70;;;;;;5079532;28;19913;-79
2021/11/02 17:36:19;;;;;;;;;;;26.00;44.80;;;;;;5079012;28;19912;-79
2021/11/02 17:38:45;;;;;;;;;;;26.00;44.80;;;;;;5062018;28;19924;-82
2021/11/02 17:41:11;;;;;;;;;;;26.00;44.90;;;;;;5061913;28;19914;-80
2021/11/02 17:43:41;;;;;;;;;;;26.00;44.90;;;;;;5061781;28;19908;-79
2021/11/02 17:46:06;;;;;;;;;;;26.00;44.80;;;;;;5061072;28;19927;-79
2021/11/02 17:48:32;;;;;;;;;;;26.00;44.80;;;;;;5078451;28;20118;-78
2021/11/02 17:50:58;;;;;;;;;;;26.00;44.80;;;;;;5078498;28;20336;-80
2021/11/02 17:53:23;;;;;;;;;;;26.00;44.70;;;;;;5062330;28;19915;-80
2021/11/02 17:55:49;;;;;;;;;;;26.00;44.60;;;;;;5061581;28;19950;-82
2021/11/02 17:58:19;;;;;;;;;;;26.00;44.50;;;;;;5061556;28;20340;-79
2021/11/02 18:00:47;;;;;;;;;;;26.00;44.40;;;;;;5096282;28;20248;-80
2021/11/02 18:03:12;;;;;;;;;;;26.00;44.40;;;;;;5078479;28;19907;-80
2021/11/02 18:05:38;;;;;;;;;;;26.00;44.40;;;;;;5061544;28;19970;-82
2021/11/02 18:08:07;;;;;;;;;;;26.00;44.40;;;;;;5078192;28;20244;-83
2021/11/02 18:10:35;;;;;;;;;;;26.00;44.40;;;;;;5078522;28;20506;-81
2021/11/02 18:13:01;;;;;;;;;;;26.00;44.30;;;;;;5062150;28;19908;-80
2021/11/02 18:15:29;;;;;;;;;;;26.00;44.30;;;;;;5096788;28;19919;-80
2021/11/02 18:17:54;;;;;;;;;;;26.00;44.30;;;;;;5062865;28;19916;-79
2021/11/02 18:20:25;;;;;;;;;;;26.00;44.30;;;;;;5080874;28;19974;-82
2021/11/02 18:22:51;;;;;;;;;;;26.00;44.30;;;;;;5080304;28;19915;-82
2021/11/02 18:25:19;;;;;;;;;;;26.00;44.30;;;;;;5079280;28;19987;-76
2021/11/02 18:27:47;;;;;;;;;;;26.00;44.50;;;;;;5096602;28;20023;-81
2021/11/02 18:30:16;;;;;;;;;;;26.00;44.60;;;;;;5079227;28;19966;-79
2021/11/02 18:32:42;;;;;;;;;;;26.00;44.60;;;;;;5078677;28;20069;-78
2021/11/02 18:35:07;;;;;;;;;;;26.00;44.70;;;;;;5061864;28;19908;-85
2021/11/02 18:37:35;;;;;;;;;;;26.00;44.70;;;;;;5096007;28;20019;-81
2021/11/02 18:40:04;;;;;;;;;;;26.10;44.80;;;;;;5078626;28;20014;-81
2021/11/02 18:42:29;;;;;;;;;;;26.10;44.80;;;;;;5078265;28;19909;-79
2021/11/02 18:44:55;;;;;;;;;;;26.10;44.90;;;;;;5096621;28;19934;-76
2021/11/02 18:47:20;;;;;;;;;;;26.10;44.70;;;;;;5096850;28;19961;-78
2021/11/02 18:49:49;;;;;;;;;;;26.10;44.80;;;;;;5096034;28;19919;-81
2021/11/02 18:52:14;;;;;;;;;;;26.10;44.80;;;;;;5096168;28;19909;-81
2021/11/02 18:54:40;;;;;;;;;;;26.10;44.80;;;;;;5096432;28;20257;-77
2021/11/02 18:57:07;;;;;;;;;;;26.10;44.90;;;;;;5095453;28;19923;-82
2021/11/02 18:59:32;;;;;;;;;;;26.10;44.90;;;;;;5061403;28;19907;-80
2021/11/02 19:01:58;;;;;;;;;;;26.10;44.80;;;;;;5077856;28;20007;-79
2021/11/02 19:04:25;;;;;;;;;;;26.10;44.90;;;;;;5095375;28;19908;-79
2021/11/02 19:06:51;;;;;;;;;;;26.10;44.80;;;;;;5077400;28;19934;-78
2021/11/02 19:09:19;;;;;;;;;;;26.10;45.00;;;;;;5077687;28;19919;-83
2021/11/02 19:11:44;;;;;;;;;;;26.10;44.80;;;;;;5095659;28;19923;-78
2021/11/02 19:14:13;;;;;;;;;;;26.10;44.70;;;;;;5096419;28;19908;-78
2021/11/02 19:16:39;;;;;;;;;;;26.10;44.80;;;;;;5079161;28;19998;-79